sensor_id;sensor_type;location;lat;lon;timestamp;temperature;humidity
42037;DHT22;30340;52.004;5.908;2022-08-03T00:01:41;23.20;66.50
42037;DHT22;30340;52.004;5.908;2022-08-03T00:04:08;23.10;66.90
42037;DHT22;30340;52.004;5.908;2022-08-03T00:06:34;23.00;67.40
42037;DHT22;30340;52.004;5.908;2022-08-03T00:09:00;22.90;67.90
42037;DHT22;30340;52.004;5.908;2022-08-03T00:11:26;22.80;68.10
42037;DHT22;30340;52.004;5.908;2022-08-03T00:13:52;22.80;68.10
42037;DHT22;30340;52.004;5.908;2022-08-03T00:16:18;22.80;68.20
42037;DHT22;30340;52.004;5.908;2022-08-03T00:18:44;22.80;68.40
42037;DHT22;30340;52.004;5.908;2022-08-03T00:21:10;22.70;68.70
42037;DHT22;30340;52.004;5.908;2022-08-03T00:23:36;22.60;69.20
42037;DHT22;30340;52.004;5.908;2022-08-03T00:26:01;22.60;69.30
42037;DHT22;30340;52.004;5.908;2022-08-03T00:28:27;22.60;69.30
42037;DHT22;30340;52.004;5.908;2022-08-03T00:30:53;22.60;69.10
42037;DHT22;30340;52.004;5.908;2022-08-03T00:33:20;22.60;68.90
42037;DHT22;30340;52.004;5.908;2022-08-03T00:35:46;22.60;68.90
42037;DHT22;30340;52.004;5.908;2022-08-03T00:38:12;22.60;69.10
42037;DHT22;30340;52.004;5.908;2022-08-03T00:40:37;22.60;69.20
42037;DHT22;30340;52.004;5.908;2022-08-03T00:43:05;22.50;69.50
42037;DHT22;30340;52.004;5.908;2022-08-03T00:45:36;22.50;69.60
42037;DHT22;30340;52.004;5.908;2022-08-03T00:48:04;22.50;69.80
42037;DHT22;30340;52.004;5.908;2022-08-03T00:50:31;22.40;69.80
42037;DHT22;30340;52.004;5.908;2022-08-03T00:53:00;22.40;69.70
42037;DHT22;30340;52.004;5.908;2022-08-03T00:55:26;22.40;70.00
42037;DHT22;30340;52.004;5.908;2022-08-03T00:57:53;22.30;70.30
42037;DHT22;30340;52.004;5.908;2022-08-03T01:00:24;22.30;70.50
42037;DHT22;30340;52.004;5.908;2022-08-03T01:02:51;22.30;70.40
42037;DHT22;30340;52.004;5.908;2022-08-03T01:05:18;22.20;70.70
42037;DHT22;30340;52.004;5.908;2022-08-03T01:13:06;22.00;71.30
42037;DHT22;30340;52.004;5.908;2022-08-03T01:15:39;22.00;71.70
42037;DHT22;30340;52.004;5.908;2022-08-03T01:18:16;21.90;72.10
42037;DHT22;30340;52.004;5.908;2022-08-03T01:20:51;21.90;72.50
42037;DHT22;30340;52.004;5.908;2022-08-03T01:29:07;21.80;73.30
42037;DHT22;30340;52.004;5.908;2022-08-03T01:31:46;21.80;72.90
42037;DHT22;30340;52.004;5.908;2022-08-03T01:34:15;21.80;73.20
42037;DHT22;30340;52.004;5.908;2022-08-03T01:36:44;21.80;73.00
42037;DHT22;30340;52.004;5.908;2022-08-03T01:39:13;21.80;72.80
42037;DHT22;30340;52.004;5.908;2022-08-03T01:41:55;21.80;72.50
42037;DHT22;30340;52.004;5.908;2022-08-03T01:44:29;21.80;72.90
42037;DHT22;30340;52.004;5.908;2022-08-03T01:46:59;21.70;72.80
42037;DHT22;30340;52.004;5.908;2022-08-03T01:49:28;21.70;72.90
42037;DHT22;30340;52.004;5.908;2022-08-03T01:51:55;21.70;73.10
42037;DHT22;30340;52.004;5.908;2022-08-03T01:54:23;21.70;73.30
42037;DHT22;30340;52.004;5.908;2022-08-03T01:56:50;21.70;73.50
42037;DHT22;30340;52.004;5.908;2022-08-03T01:59:18;21.60;73.50
42037;DHT22;30340;52.004;5.908;2022-08-03T02:01:45;21.60;73.50
42037;DHT22;30340;52.004;5.908;2022-08-03T02:04:14;21.60;73.20
42037;DHT22;30340;52.004;5.908;2022-08-03T02:06:44;21.70;73.10
42037;DHT22;30340;52.004;5.908;2022-08-03T02:09:11;21.70;73.00
42037;DHT22;30340;52.004;5.908;2022-08-03T02:11:38;21.70;72.90
42037;DHT22;30340;52.004;5.908;2022-08-03T02:14:05;21.70;72.80
42037;DHT22;30340;52.004;5.908;2022-08-03T02:16:32;21.70;72.90
42037;DHT22;30340;52.004;5.908;2022-08-03T02:19:01;21.60;73.30
42037;DHT22;30340;52.004;5.908;2022-08-03T02:21:29;21.50;73.50
42037;DHT22;30340;52.004;5.908;2022-08-03T02:23:57;21.50;73.80
42037;DHT22;30340;52.004;5.908;2022-08-03T02:26:23;21.50;74.10
42037;DHT22;30340;52.004;5.908;2022-08-03T02:28:53;21.40;74.30
42037;DHT22;30340;52.004;5.908;2022-08-03T02:31:23;21.40;74.40
42037;DHT22;30340;52.004;5.908;2022-08-03T02:33:56;21.40;74.30
42037;DHT22;30340;52.004;5.908;2022-08-03T02:36:26;21.40;74.20
42037;DHT22;30340;52.004;5.908;2022-08-03T02:38:55;21.40;74.30
42037;DHT22;30340;52.004;5.908;2022-08-03T02:41:29;21.40;74.30
42037;DHT22;30340;52.004;5.908;2022-08-03T02:43:56;21.50;74.30
42037;DHT22;30340;52.004;5.908;2022-08-03T02:46:30;21.50;74.20
42037;DHT22;30340;52.004;5.908;2022-08-03T02:48:59;21.50;74.30
42037;DHT22;30340;52.004;5.908;2022-08-03T02:51:27;21.50;74.30
42037;DHT22;30340;52.004;5.908;2022-08-03T02:53:55;21.50;74.50
42037;DHT22;30340;52.004;5.908;2022-08-03T02:56:23;21.40;74.60
42037;DHT22;30340;52.004;5.908;2022-08-03T02:58:50;21.40;74.70
42037;DHT22;30340;52.004;5.908;2022-08-03T03:01:19;21.40;74.50
42037;DHT22;30340;52.004;5.908;2022-08-03T03:03:45;21.40;74.50
42037;DHT22;30340;52.004;5.908;2022-08-03T03:06:12;21.50;74.40
42037;DHT22;30340;52.004;5.908;2022-08-03T03:08:38;21.50;74.40
42037;DHT22;30340;52.004;5.908;2022-08-03T03:11:04;21.50;74.40
42037;DHT22;30340;52.004;5.908;2022-08-03T03:13:32;21.40;74.60
42037;DHT22;30340;52.004;5.908;2022-08-03T03:16:03;21.40;74.80
42037;DHT22;30340;52.004;5.908;2022-08-03T03:18:31;21.40;75.10
42037;DHT22;30340;52.004;5.908;2022-08-03T03:20:58;21.30;75.10
42037;DHT22;30340;52.004;5.908;2022-08-03T03:23:25;21.30;75.30
42037;DHT22;30340;52.004;5.908;2022-08-03T03:25:52;21.20;75.20
42037;DHT22;30340;52.004;5.908;2022-08-03T03:28:21;21.20;75.40
42037;DHT22;30340;52.004;5.908;2022-08-03T03:30:46;21.20;75.40
42037;DHT22;30340;52.004;5.908;2022-08-03T03:33:12;21.20;75.50
42037;DHT22;30340;52.004;5.908;2022-08-03T03:35:40;21.10;76.20
42037;DHT22;30340;52.004;5.908;2022-08-03T03:38:06;21.10;76.50
42037;DHT22;30340;52.004;5.908;2022-08-03T03:40:33;21.10;76.40
42037;DHT22;30340;52.004;5.908;2022-08-03T03:42:59;21.10;76.20
42037;DHT22;30340;52.004;5.908;2022-08-03T03:45:25;21.10;76.50
42037;DHT22;30340;52.004;5.908;2022-08-03T03:47:50;21.10;76.70
42037;DHT22;30340;52.004;5.908;2022-08-03T03:50:17;21.00;76.70
42037;DHT22;30340;52.004;5.908;2022-08-03T03:52:43;21.00;76.90
42037;DHT22;30340;52.004;5.908;2022-08-03T03:55:09;21.00;77.10
42037;DHT22;30340;52.004;5.908;2022-08-03T03:57:34;21.00;77.10
42037;DHT22;30340;52.004;5.908;2022-08-03T04:00:00;21.00;77.10
42037;DHT22;30340;52.004;5.908;2022-08-03T04:02:26;21.00;77.20
42037;DHT22;30340;52.004;5.908;2022-08-03T04:04:51;21.00;77.20
42037;DHT22;30340;52.004;5.908;2022-08-03T04:07:48;20.90;77.50
42037;DHT22;30340;52.004;5.908;2022-08-03T04:10:38;20.90;77.70
42037;DHT22;30340;52.004;5.908;2022-08-03T04:13:26;20.90;78.00
42037;DHT22;30340;52.004;5.908;2022-08-03T04:15:55;20.80;78.20
42037;DHT22;30340;52.004;5.908;2022-08-03T04:18:22;20.80;78.30
42037;DHT22;30340;52.004;5.908;2022-08-03T04:20:49;20.80;78.40
42037;DHT22;30340;52.004;5.908;2022-08-03T04:23:17;20.80;78.90
42037;DHT22;30340;52.004;5.908;2022-08-03T04:25:45;20.80;79.20
42037;DHT22;30340;52.004;5.908;2022-08-03T04:28:14;20.70;79.30
42037;DHT22;30340;52.004;5.908;2022-08-03T04:30:44;20.80;79.30
42037;DHT22;30340;52.004;5.908;2022-08-03T04:33:13;20.80;79.20
42037;DHT22;30340;52.004;5.908;2022-08-03T04:35:40;20.80;79.30
42037;DHT22;30340;52.004;5.908;2022-08-03T04:38:08;20.80;79.10
42037;DHT22;30340;52.004;5.908;2022-08-03T04:40:39;20.90;79.00
42037;DHT22;30340;52.004;5.908;2022-08-03T04:43:07;20.90;79.20
42037;DHT22;30340;52.004;5.908;2022-08-03T04:45:34;20.90;79.30
42037;DHT22;30340;52.004;5.908;2022-08-03T04:48:00;20.90;79.10
42037;DHT22;30340;52.004;5.908;2022-08-03T04:50:26;20.90;78.90
42037;DHT22;30340;52.004;5.908;2022-08-03T04:52:53;21.00;79.00
42037;DHT22;30340;52.004;5.908;2022-08-03T04:55:45;21.00;78.90
42037;DHT22;30340;52.004;5.908;2022-08-03T04:58:10;21.00;78.70
42037;DHT22;30340;52.004;5.908;2022-08-03T05:00:37;21.00;78.70
42037;DHT22;30340;52.004;5.908;2022-08-03T05:03:02;21.00;79.00
42037;DHT22;30340;52.004;5.908;2022-08-03T05:05:28;21.00;78.80
42037;DHT22;30340;52.004;5.908;2022-08-03T05:07:53;21.10;78.70
42037;DHT22;30340;52.004;5.908;2022-08-03T05:10:20;21.10;78.60
42037;DHT22;30340;52.004;5.908;2022-08-03T05:12:47;21.20;78.40
42037;DHT22;30340;52.004;5.908;2022-08-03T05:15:13;21.20;78.10
42037;DHT22;30340;52.004;5.908;2022-08-03T05:17:39;21.30;78.00
42037;DHT22;30340;52.004;5.908;2022-08-03T05:20:05;21.30;78.10
42037;DHT22;30340;52.004;5.908;2022-08-03T05:22:31;21.30;78.00
42037;DHT22;30340;52.004;5.908;2022-08-03T05:24:57;21.40;78.70
42037;DHT22;30340;52.004;5.908;2022-08-03T05:27:22;21.80;77.50
42037;DHT22;30340;52.004;5.908;2022-08-03T05:29:49;22.30;76.20
42037;DHT22;30340;52.004;5.908;2022-08-03T05:32:16;23.10;74.40
42037;DHT22;30340;52.004;5.908;2022-08-03T05:34:42;23.90;71.80
42037;DHT22;30340;52.004;5.908;2022-08-03T05:37:08;24.90;69.30
42037;DHT22;30340;52.004;5.908;2022-08-03T05:39:34;25.80;66.70
42037;DHT22;30340;52.004;5.908;2022-08-03T05:42:00;26.40;63.90
42037;DHT22;30340;52.004;5.908;2022-08-03T05:44:25;26.90;62.60
42037;DHT22;30340;52.004;5.908;2022-08-03T05:46:51;27.50;61.20
42037;DHT22;30340;52.004;5.908;2022-08-03T05:49:17;27.80;59.00
42037;DHT22;30340;52.004;5.908;2022-08-03T05:51:43;28.10;58.50
42037;DHT22;30340;52.004;5.908;2022-08-03T05:54:09;28.50;57.10
42037;DHT22;30340;52.004;5.908;2022-08-03T05:56:34;28.80;56.70
42037;DHT22;30340;52.004;5.908;2022-08-03T05:59:00;29.30;55.70
42037;DHT22;30340;52.004;5.908;2022-08-03T06:01:25;29.50;54.70
42037;DHT22;30340;52.004;5.908;2022-08-03T06:03:51;30.00;54.00
42037;DHT22;30340;52.004;5.908;2022-08-03T06:06:17;30.10;53.00
42037;DHT22;30340;52.004;5.908;2022-08-03T06:08:43;30.40;52.50
42037;DHT22;30340;52.004;5.908;2022-08-03T06:11:09;30.60;52.10
42037;DHT22;30340;52.004;5.908;2022-08-03T06:13:35;30.70;52.10
42037;DHT22;30340;52.004;5.908;2022-08-03T06:16:01;30.80;51.60
42037;DHT22;30340;52.004;5.908;2022-08-03T06:18:27;30.60;50.80
42037;DHT22;30340;52.004;5.908;2022-08-03T06:20:53;30.00;51.50
42037;DHT22;30340;52.004;5.908;2022-08-03T06:23:18;29.60;52.50
42037;DHT22;30340;52.004;5.908;2022-08-03T06:25:44;29.20;53.30
42037;DHT22;30340;52.004;5.908;2022-08-03T06:28:11;28.80;53.50
42037;DHT22;30340;52.004;5.908;2022-08-03T06:30:38;28.60;54.50
42037;DHT22;30340;52.004;5.908;2022-08-03T06:33:04;28.80;54.30
42037;DHT22;30340;52.004;5.908;2022-08-03T06:35:29;28.90;53.90
42037;DHT22;30340;52.004;5.908;2022-08-03T06:37:55;29.00;54.20
42037;DHT22;30340;52.004;5.908;2022-08-03T06:40:22;29.40;53.50
42037;DHT22;30340;52.004;5.908;2022-08-03T06:42:53;29.70;52.60
42037;DHT22;30340;52.004;5.908;2022-08-03T06:45:19;29.60;52.80
42037;DHT22;30340;52.004;5.908;2022-08-03T06:47:45;29.60;53.00
42037;DHT22;30340;52.004;5.908;2022-08-03T06:50:10;29.20;53.30
42037;DHT22;30340;52.004;5.908;2022-08-03T06:52:36;28.80;53.90
42037;DHT22;30340;52.004;5.908;2022-08-03T06:55:03;28.50;54.80
42037;DHT22;30340;52.004;5.908;2022-08-03T06:57:29;28.70;55.00
42037;DHT22;30340;52.004;5.908;2022-08-03T06:59:54;28.80;55.00
42037;DHT22;30340;52.004;5.908;2022-08-03T07:02:26;28.90;55.20
42037;DHT22;30340;52.004;5.908;2022-08-03T07:04:51;28.80;55.70
42037;DHT22;30340;52.004;5.908;2022-08-03T07:07:17;28.50;55.30
42037;DHT22;30340;52.004;5.908;2022-08-03T07:09:43;28.20;55.50
42037;DHT22;30340;52.004;5.908;2022-08-03T07:12:09;28.30;56.10
42037;DHT22;30340;52.004;5.908;2022-08-03T07:14:34;28.50;55.80
42037;DHT22;30340;52.004;5.908;2022-08-03T07:17:00;28.70;54.90
42037;DHT22;30340;52.004;5.908;2022-08-03T07:19:25;28.50;54.50
42037;DHT22;30340;52.004;5.908;2022-08-03T07:21:51;28.80;54.30
42037;DHT22;30340;52.004;5.908;2022-08-03T07:24:16;28.80;54.40
42037;DHT22;30340;52.004;5.908;2022-08-03T07:26:42;28.70;54.70
42037;DHT22;30340;52.004;5.908;2022-08-03T07:29:07;29.00;54.70
42037;DHT22;30340;52.004;5.908;2022-08-03T07:31:33;29.00;54.40
42037;DHT22;30340;52.004;5.908;2022-08-03T07:33:58;29.00;54.60
42037;DHT22;30340;52.004;5.908;2022-08-03T07:36:24;28.70;54.90
42037;DHT22;30340;52.004;5.908;2022-08-03T07:38:50;28.80;55.40
42037;DHT22;30340;52.004;5.908;2022-08-03T07:41:15;28.50;55.20
42037;DHT22;30340;52.004;5.908;2022-08-03T07:43:41;28.20;55.80
42037;DHT22;30340;52.004;5.908;2022-08-03T07:46:06;28.00;56.10
42037;DHT22;30340;52.004;5.908;2022-08-03T07:48:32;27.90;56.30
42037;DHT22;30340;52.004;5.908;2022-08-03T07:50:57;27.80;56.50
42037;DHT22;30340;52.004;5.908;2022-08-03T07:53:23;27.80;56.70
42037;DHT22;30340;52.004;5.908;2022-08-03T07:55:48;27.70;56.80
42037;DHT22;30340;52.004;5.908;2022-08-03T07:58:15;27.60;57.00
42037;DHT22;30340;52.004;5.908;2022-08-03T08:00:42;27.40;56.60
42037;DHT22;30340;52.004;5.908;2022-08-03T08:03:09;27.40;57.10
42037;DHT22;30340;52.004;5.908;2022-08-03T08:05:35;27.40;57.20
42037;DHT22;30340;52.004;5.908;2022-08-03T08:08:01;27.60;57.00
42037;DHT22;30340;52.004;5.908;2022-08-03T08:10:27;27.80;56.90
42037;DHT22;30340;52.004;5.908;2022-08-03T08:12:53;27.70;56.80
42037;DHT22;30340;52.004;5.908;2022-08-03T08:15:19;27.70;56.90
42037;DHT22;30340;52.004;5.908;2022-08-03T08:17:53;27.80;56.60
42037;DHT22;30340;52.004;5.908;2022-08-03T08:20:21;27.90;56.70
42037;DHT22;30340;52.004;5.908;2022-08-03T08:22:47;27.90;56.30
42037;DHT22;30340;52.004;5.908;2022-08-03T08:25:13;28.00;56.10
42037;DHT22;30340;52.004;5.908;2022-08-03T08:27:44;28.00;56.00
42037;DHT22;30340;52.004;5.908;2022-08-03T08:30:11;28.00;56.00
42037;DHT22;30340;52.004;5.908;2022-08-03T08:32:37;28.00;55.70
42037;DHT22;30340;52.004;5.908;2022-08-03T08:35:04;28.00;55.90
42037;DHT22;30340;52.004;5.908;2022-08-03T08:37:29;28.10;55.70
42037;DHT22;30340;52.004;5.908;2022-08-03T08:39:55;28.20;55.50
42037;DHT22;30340;52.004;5.908;2022-08-03T08:42:21;28.10;54.90
42037;DHT22;30340;52.004;5.908;2022-08-03T08:44:46;27.90;55.00
42037;DHT22;30340;52.004;5.908;2022-08-03T08:47:13;28.00;55.40
42037;DHT22;30340;52.004;5.908;2022-08-03T08:49:39;28.00;55.10
42037;DHT22;30340;52.004;5.908;2022-08-03T08:52:07;28.00;55.10
42037;DHT22;30340;52.004;5.908;2022-08-03T08:54:33;28.10;54.80
42037;DHT22;30340;52.004;5.908;2022-08-03T08:57:02;28.00;54.80
42037;DHT22;30340;52.004;5.908;2022-08-03T08:59:31;28.00;54.70
42037;DHT22;30340;52.004;5.908;2022-08-03T09:01:59;28.20;54.60
42037;DHT22;30340;52.004;5.908;2022-08-03T09:04:24;28.30;54.50
42037;DHT22;30340;52.004;5.908;2022-08-03T09:06:51;28.40;54.30
42037;DHT22;30340;52.004;5.908;2022-08-03T09:09:17;28.60;54.30
42037;DHT22;30340;52.004;5.908;2022-08-03T09:11:42;28.50;53.40
42037;DHT22;30340;52.004;5.908;2022-08-03T09:14:09;28.50;53.50
42037;DHT22;30340;52.004;5.908;2022-08-03T09:16:35;28.50;53.30
42037;DHT22;30340;52.004;5.908;2022-08-03T09:19:12;28.40;52.90
42037;DHT22;30340;52.004;5.908;2022-08-03T09:21:41;28.30;52.90
42037;DHT22;30340;52.004;5.908;2022-08-03T09:24:06;28.40;53.10
42037;DHT22;30340;52.004;5.908;2022-08-03T09:26:36;28.40;53.40
42037;DHT22;30340;52.004;5.908;2022-08-03T09:29:07;28.50;52.90
42037;DHT22;30340;52.004;5.908;2022-08-03T09:31:35;28.50;52.60
42037;DHT22;30340;52.004;5.908;2022-08-03T09:34:06;28.50;52.30
42037;DHT22;30340;52.004;5.908;2022-08-03T09:36:51;28.60;52.30
42037;DHT22;30340;52.004;5.908;2022-08-03T09:39:23;28.70;52.10
42037;DHT22;30340;52.004;5.908;2022-08-03T09:44:39;28.90;51.60
42037;DHT22;30340;52.004;5.908;2022-08-03T09:47:07;29.00;51.60
42037;DHT22;30340;52.004;5.908;2022-08-03T09:49:32;29.10;51.40
42037;DHT22;30340;52.004;5.908;2022-08-03T09:52:13;29.30;51.50
42037;DHT22;30340;52.004;5.908;2022-08-03T09:54:39;29.50;51.20
42037;DHT22;30340;52.004;5.908;2022-08-03T09:57:05;29.50;50.90
42037;DHT22;30340;52.004;5.908;2022-08-03T09:59:32;29.60;50.60
42037;DHT22;30340;52.004;5.908;2022-08-03T10:01:58;29.60;50.40
42037;DHT22;30340;52.004;5.908;2022-08-03T10:04:25;29.80;50.50
42037;DHT22;30340;52.004;5.908;2022-08-03T10:07:07;29.80;49.70
42037;DHT22;30340;52.004;5.908;2022-08-03T10:09:34;29.80;49.70
42037;DHT22;30340;52.004;5.908;2022-08-03T10:12:11;29.60;49.40
42037;DHT22;30340;52.004;5.908;2022-08-03T10:14:39;29.40;49.80
42037;DHT22;30340;52.004;5.908;2022-08-03T10:17:06;29.40;50.90
42037;DHT22;30340;52.004;5.908;2022-08-03T10:19:32;29.50;50.20
42037;DHT22;30340;52.004;5.908;2022-08-03T10:22:22;29.50;50.10
42037;DHT22;30340;52.004;5.908;2022-08-03T10:25:07;29.70;50.30
42037;DHT22;30340;52.004;5.908;2022-08-03T10:27:37;29.90;50.30
42037;DHT22;30340;52.004;5.908;2022-08-03T10:30:08;30.10;49.90
42037;DHT22;30340;52.004;5.908;2022-08-03T10:32:42;30.30;49.80
42037;DHT22;30340;52.004;5.908;2022-08-03T10:35:12;30.40;49.60
42037;DHT22;30340;52.004;5.908;2022-08-03T10:37:55;30.40;48.40
42037;DHT22;30340;52.004;5.908;2022-08-03T10:40:22;30.30;48.40
42037;DHT22;30340;52.004;5.908;2022-08-03T10:42:50;30.30;48.30
42037;DHT22;30340;52.004;5.908;2022-08-03T10:45:20;30.30;47.60
42037;DHT22;30340;52.004;5.908;2022-08-03T10:47:49;30.20;47.40
42037;DHT22;30340;52.004;5.908;2022-08-03T10:50:16;30.20;47.60
42037;DHT22;30340;52.004;5.908;2022-08-03T10:53:02;30.30;47.60
42037;DHT22;30340;52.004;5.908;2022-08-03T10:55:39;30.30;47.50
42037;DHT22;30340;52.004;5.908;2022-08-03T11:01:03;30.40;47.50
42037;DHT22;30340;52.004;5.908;2022-08-03T11:03:29;30.50;47.50
42037;DHT22;30340;52.004;5.908;2022-08-03T11:06:15;30.60;47.50
42037;DHT22;30340;52.004;5.908;2022-08-03T11:08:43;30.80;47.20
42037;DHT22;30340;52.004;5.908;2022-08-03T11:16:22;30.90;45.70
42037;DHT22;30340;52.004;5.908;2022-08-03T11:19:00;30.90;45.30
42037;DHT22;30340;52.004;5.908;2022-08-03T11:27:28;31.10;45.20
42037;DHT22;30340;52.004;5.908;2022-08-03T11:30:07;31.10;45.00
42037;DHT22;30340;52.004;5.908;2022-08-03T11:40:39;31.60;43.80
42037;DHT22;30340;52.004;5.908;2022-08-03T11:43:07;31.60;43.70
42037;DHT22;30340;52.004;5.908;2022-08-03T11:45:34;31.70;43.40
42037;DHT22;30340;52.004;5.908;2022-08-03T11:48:13;31.70;43.10
42037;DHT22;30340;52.004;5.908;2022-08-03T11:50:40;31.70;43.60
42037;DHT22;30340;52.004;5.908;2022-08-03T11:53:07;31.90;43.10
42037;DHT22;30340;52.004;5.908;2022-08-03T11:55:32;32.00;42.80
42037;DHT22;30340;52.004;5.908;2022-08-03T11:57:59;32.00;41.90
42037;DHT22;30340;52.004;5.908;2022-08-03T12:00:30;32.10;41.30
42037;DHT22;30340;52.004;5.908;2022-08-03T12:02:59;32.20;41.10
42037;DHT22;30340;52.004;5.908;2022-08-03T12:08:09;32.40;40.60
42037;DHT22;30340;52.004;5.908;2022-08-03T12:10:36;32.50;40.60
42037;DHT22;30340;52.004;5.908;2022-08-03T12:13:03;32.30;40.50
42037;DHT22;30340;52.004;5.908;2022-08-03T12:15:33;32.30;40.80
42037;DHT22;30340;52.004;5.908;2022-08-03T12:18:00;32.50;40.80
42037;DHT22;30340;52.004;5.908;2022-08-03T12:20:28;32.50;40.60
42037;DHT22;30340;52.004;5.908;2022-08-03T12:22:54;32.50;40.40
42037;DHT22;30340;52.004;5.908;2022-08-03T12:25:22;32.70;40.70
42037;DHT22;30340;52.004;5.908;2022-08-03T12:27:48;32.90;40.40
42037;DHT22;30340;52.004;5.908;2022-08-03T12:30:14;33.10;40.30
42037;DHT22;30340;52.004;5.908;2022-08-03T12:32:42;33.30;39.40
42037;DHT22;30340;52.004;5.908;2022-08-03T12:35:08;33.30;39.00
42037;DHT22;30340;52.004;5.908;2022-08-03T12:37:35;33.30;38.50
42037;DHT22;30340;52.004;5.908;2022-08-03T12:40:02;33.30;38.40
42037;DHT22;30340;52.004;5.908;2022-08-03T12:42:34;33.40;38.70
42037;DHT22;30340;52.004;5.908;2022-08-03T12:45:20;33.40;38.30
42037;DHT22;30340;52.004;5.908;2022-08-03T12:48:00;33.60;38.10
42037;DHT22;30340;52.004;5.908;2022-08-03T12:50:31;33.60;37.50
42037;DHT22;30340;52.004;5.908;2022-08-03T12:52:59;33.50;37.20
42037;DHT22;30340;52.004;5.908;2022-08-03T12:55:25;33.50;37.60
42037;DHT22;30340;52.004;5.908;2022-08-03T12:58:04;33.80;38.00
42037;DHT22;30340;52.004;5.908;2022-08-03T13:00:31;34.10;37.80
42037;DHT22;30340;52.004;5.908;2022-08-03T13:03:03;34.10;37.40
42037;DHT22;30340;52.004;5.908;2022-08-03T13:05:30;34.30;37.50
42037;DHT22;30340;52.004;5.908;2022-08-03T13:07:56;34.40;36.90
42037;DHT22;30340;52.004;5.908;2022-08-03T13:10:31;34.40;36.90
42037;DHT22;30340;52.004;5.908;2022-08-03T13:12:58;34.60;36.90
42037;DHT22;30340;52.004;5.908;2022-08-03T13:15:28;34.50;36.40
42037;DHT22;30340;52.004;5.908;2022-08-03T13:17:55;34.50;36.50
42037;DHT22;30340;52.004;5.908;2022-08-03T13:20:21;34.50;36.10
42037;DHT22;30340;52.004;5.908;2022-08-03T13:22:47;34.30;36.20
42037;DHT22;30340;52.004;5.908;2022-08-03T13:25:13;34.20;36.60
42037;DHT22;30340;52.004;5.908;2022-08-03T13:27:39;34.40;36.90
42037;DHT22;30340;52.004;5.908;2022-08-03T13:30:06;34.50;36.80
42037;DHT22;30340;52.004;5.908;2022-08-03T13:32:32;34.50;36.80
42037;DHT22;30340;52.004;5.908;2022-08-03T13:34:58;34.70;37.10
42037;DHT22;30340;52.004;5.908;2022-08-03T13:37:24;34.70;37.00
42037;DHT22;30340;52.004;5.908;2022-08-03T13:39:50;34.60;37.10
42037;DHT22;30340;52.004;5.908;2022-08-03T13:42:16;34.60;37.40
42037;DHT22;30340;52.004;5.908;2022-08-03T13:44:44;34.50;37.30
42037;DHT22;30340;52.004;5.908;2022-08-03T13:47:10;34.30;37.70
42037;DHT22;30340;52.004;5.908;2022-08-03T13:49:36;34.40;37.90
42037;DHT22;30340;52.004;5.908;2022-08-03T13:52:02;34.40;38.00
42037;DHT22;30340;52.004;5.908;2022-08-03T13:54:27;34.50;38.20
42037;DHT22;30340;52.004;5.908;2022-08-03T13:56:54;34.70;38.20
42037;DHT22;30340;52.004;5.908;2022-08-03T13:59:25;34.70;38.10
42037;DHT22;30340;52.004;5.908;2022-08-03T14:01:51;34.70;38.00
42037;DHT22;30340;52.004;5.908;2022-08-03T14:04:18;34.70;38.10
42037;DHT22;30340;52.004;5.908;2022-08-03T14:06:44;34.50;38.10
42037;DHT22;30340;52.004;5.908;2022-08-03T14:09:13;34.50;38.50
42037;DHT22;30340;52.004;5.908;2022-08-03T14:11:40;34.50;38.50
42037;DHT22;30340;52.004;5.908;2022-08-03T14:14:05;34.50;38.50
42037;DHT22;30340;52.004;5.908;2022-08-03T14:16:31;34.40;38.60
42037;DHT22;30340;52.004;5.908;2022-08-03T14:18:56;34.40;38.70
42037;DHT22;30340;52.004;5.908;2022-08-03T14:21:22;34.50;38.80
42037;DHT22;30340;52.004;5.908;2022-08-03T14:23:47;34.70;38.90
42037;DHT22;30340;52.004;5.908;2022-08-03T14:26:13;34.60;38.80
42037;DHT22;30340;52.004;5.908;2022-08-03T14:28:39;34.60;38.90
42037;DHT22;30340;52.004;5.908;2022-08-03T14:31:05;34.70;38.80
42037;DHT22;30340;52.004;5.908;2022-08-03T14:33:31;34.70;38.80
42037;DHT22;30340;52.004;5.908;2022-08-03T14:35:57;34.70;38.70
42037;DHT22;30340;52.004;5.908;2022-08-03T14:38:22;34.70;38.70
42037;DHT22;30340;52.004;5.908;2022-08-03T14:40:49;34.70;38.90
42037;DHT22;30340;52.004;5.908;2022-08-03T14:43:15;34.80;39.00
42037;DHT22;30340;52.004;5.908;2022-08-03T14:45:42;34.70;38.90
42037;DHT22;30340;52.004;5.908;2022-08-03T14:48:08;34.70;39.20
42037;DHT22;30340;52.004;5.908;2022-08-03T14:50:33;34.80;39.20
42037;DHT22;30340;52.004;5.908;2022-08-03T14:52:59;34.90;39.10
42037;DHT22;30340;52.004;5.908;2022-08-03T14:55:24;34.90;38.90
42037;DHT22;30340;52.004;5.908;2022-08-03T14:57:50;34.80;38.90
42037;DHT22;30340;52.004;5.908;2022-08-03T15:00:15;34.80;38.80
42037;DHT22;30340;52.004;5.908;2022-08-03T15:02:41;35.00;38.90
42037;DHT22;30340;52.004;5.908;2022-08-03T15:05:07;35.00;38.70
42037;DHT22;30340;52.004;5.908;2022-08-03T15:07:33;35.00;38.80
42037;DHT22;30340;52.004;5.908;2022-08-03T15:09:58;35.00;38.60
42037;DHT22;30340;52.004;5.908;2022-08-03T15:12:24;34.90;38.80
42037;DHT22;30340;52.004;5.908;2022-08-03T15:14:50;34.80;38.70
42037;DHT22;30340;52.004;5.908;2022-08-03T15:17:15;34.60;38.70
42037;DHT22;30340;52.004;5.908;2022-08-03T15:19:41;34.60;39.00
42037;DHT22;30340;52.004;5.908;2022-08-03T15:22:07;34.50;39.10
42037;DHT22;30340;52.004;5.908;2022-08-03T15:24:32;34.40;39.30
42037;DHT22;30340;52.004;5.908;2022-08-03T15:26:58;34.40;39.40
42037;DHT22;30340;52.004;5.908;2022-08-03T15:29:24;34.40;39.30
42037;DHT22;30340;52.004;5.908;2022-08-03T15:31:49;34.30;39.20
42037;DHT22;30340;52.004;5.908;2022-08-03T15:34:15;34.40;39.40
42037;DHT22;30340;52.004;5.908;2022-08-03T15:36:40;34.30;39.30
42037;DHT22;30340;52.004;5.908;2022-08-03T15:39:06;34.20;39.30
42037;DHT22;30340;52.004;5.908;2022-08-03T15:41:31;34.20;39.30
42037;DHT22;30340;52.004;5.908;2022-08-03T15:43:57;34.00;39.70
42037;DHT22;30340;52.004;5.908;2022-08-03T15:46:23;33.90;39.60
42037;DHT22;30340;52.004;5.908;2022-08-03T15:48:48;33.80;39.60
42037;DHT22;30340;52.004;5.908;2022-08-03T15:51:14;33.90;39.60
42037;DHT22;30340;52.004;5.908;2022-08-03T15:53:40;33.90;39.70
42037;DHT22;30340;52.004;5.908;2022-08-03T15:56:05;33.80;39.70
42037;DHT22;30340;52.004;5.908;2022-08-03T15:58:35;33.70;39.70
42037;DHT22;30340;52.004;5.908;2022-08-03T16:01:00;33.70;39.90
42037;DHT22;30340;52.004;5.908;2022-08-03T16:03:26;33.60;40.60
42037;DHT22;30340;52.004;5.908;2022-08-03T16:05:53;33.60;40.00
42037;DHT22;30340;52.004;5.908;2022-08-03T16:08:19;33.50;40.10
42037;DHT22;30340;52.004;5.908;2022-08-03T16:10:46;33.50;40.10
42037;DHT22;30340;52.004;5.908;2022-08-03T16:13:12;33.40;40.20